createdAt,value
2019-01-16T00:01:28.572Z,50.17
2019-01-16T00:04:06.882Z,46.50
2019-01-16T00:06:45.259Z,46.87
2019-01-16T00:09:34.155Z,24.43
2019-01-16T00:12:06.733Z,32.53
2019-01-16T00:14:42.381Z,31.77
2019-01-16T00:17:33.187Z,34.80
2019-01-16T00:20:06.586Z,33.87
2019-01-16T00:22:48.271Z,45.47
2019-01-16T00:25:26.481Z,38.73
2019-01-16T00:27:59.059Z,34.97
2019-01-16T00:30:34.501Z,35.90
2019-01-16T00:33:10.149Z,26.00
2019-01-16T00:35:42.310Z,38.63
2019-01-16T00:38:14.486Z,41.17
2019-01-16T00:40:58.942Z,23.60
2019-01-16T00:43:33.977Z,25.57
2019-01-16T00:46:06.551Z,29.60
2019-01-16T00:48:55.511Z,38.77
2019-01-16T00:51:28.089Z,35.23
2019-01-16T00:54:06.603Z,34.17
2019-01-16T00:56:45.332Z,26.47
2019-01-16T00:59:33.915Z,28.80
2019-01-16T01:02:22.839Z,32.07
2019-01-16T01:05:11.798Z,31.40
2019-01-16T01:07:44.435Z,27.90
2019-01-16T01:10:22.628Z,29.70
2019-01-16T01:12:55.261Z,24.17
2019-01-16T01:15:33.575Z,21.43
2019-01-16T01:18:11.679Z,29.10
2019-01-16T01:20:44.055Z,25.00
2019-01-16T01:23:19.257Z,32.00
2019-01-16T01:25:54.739Z,30.43
2019-01-16T01:28:33.219Z,22.43
2019-01-16T01:31:08.373Z,27.43
2019-01-16T01:33:56.844Z,43.27
2019-01-16T01:36:29.415Z,16.43
2019-01-16T01:39:01.613Z,43.27
2019-01-16T01:41:42.963Z,37.50
2019-01-16T01:44:15.099Z,28.03
2019-01-16T01:46:53.342Z,30.00
2019-01-16T01:49:28.478Z,31.07
2019-01-16T01:52:13.140Z,26.03
2019-01-16T01:54:57.591Z,24.90
2019-01-16T01:57:29.965Z,32.27
2019-01-16T02:00:08.485Z,27.53
2019-01-16T02:02:56.217Z,32.77
2019-01-16T02:05:37.800Z,32.07
2019-01-16T02:08:10.172Z,37.30
2019-01-16T02:10:45.414Z,37.60
2019-01-16T02:13:30.283Z,29.20
2019-01-16T02:16:02.871Z,25.53
2019-01-16T02:18:37.625Z,44.47
2019-01-16T02:21:09.864Z,23.63
2019-01-16T02:23:54.510Z,38.10
2019-01-16T02:26:32.820Z,31.93
2019-01-16T02:29:23.624Z,29.07
2019-01-16T02:31:56.202Z,28.00
2019-01-16T02:34:28.439Z,50.30
2019-01-16T02:37:13.237Z,23.00
2019-01-16T02:39:51.544Z,19.87
2019-01-16T02:42:33.138Z,22.70
2019-01-16T02:45:11.444Z,21.77
2019-01-16T02:47:43.816Z,30.90
2019-01-16T02:50:28.478Z,28.07
2019-01-16T02:53:03.718Z,33.50
2019-01-16T02:55:36.296Z,24.23
2019-01-16T02:58:11.536Z,40.10
2019-01-16T03:00:59.060Z,35.40
2019-01-16T03:03:31.638Z,24.40
2019-01-16T03:06:03.896Z,23.97
2019-01-16T03:08:39.454Z,42.70
2019-01-16T03:11:11.822Z,38.77
2019-01-16T03:13:47.268Z,24.00
2019-01-16T03:16:22.512Z,31.57
2019-01-16T03:19:05.337Z,28.70
2019-01-16T03:21:37.745Z,36.00
2019-01-16T03:24:12.988Z,29.90
2019-01-16T03:26:45.380Z,32.87
2019-01-16T03:29:30.172Z,29.30
2019-01-16T03:32:15.259Z,25.17
2019-01-16T03:34:47.615Z,25.37
2019-01-16T03:37:25.907Z,47.53
2019-01-16T03:40:16.443Z,25.90
2019-01-16T03:42:48.077Z,41.37
2019-01-16T03:45:26.185Z,34.63
2019-01-16T03:47:58.477Z,25.53
2019-01-16T03:50:30.575Z,47.13
2019-01-16T03:53:12.107Z,40.30
2019-01-16T03:55:44.416Z,33.73
2019-01-16T03:58:16.645Z,31.37
2019-01-16T04:00:58.026Z,30.63
2019-01-16T04:03:46.170Z,35.37
2019-01-16T04:06:34.518Z,31.53
2019-01-16T04:09:18.355Z,40.47
2019-01-16T04:12:02.404Z,39.63
2019-01-16T04:14:34.979Z,32.03
2019-01-16T04:17:13.290Z,32.17
2019-01-16T04:20:02.057Z,27.33
2019-01-16T04:22:50.803Z,30.40
2019-01-16T04:25:39.354Z,37.03
2019-01-16T04:28:16.943Z,29.07
2019-01-16T04:30:52.291Z,33.80
2019-01-16T04:33:43.305Z,28.90
2019-01-16T04:36:32.057Z,37.53
2019-01-16T04:39:17.021Z,35.00
2019-01-16T04:42:05.473Z,35.13
2019-01-16T04:44:40.943Z,23.87
2019-01-16T04:47:13.285Z,23.23
2019-01-16T04:49:54.518Z,27.90
2019-01-16T04:52:42.132Z,35.63
2019-01-16T04:55:23.586Z,45.80
2019-01-16T04:58:02.104Z,24.73
2019-01-16T05:00:47.175Z,29.00
2019-01-16T05:03:22.451Z,28.63
2019-01-16T05:05:54.982Z,49.30
2019-01-16T05:08:36.368Z,32.73
2019-01-16T05:11:12.014Z,43.80
2019-01-16T05:14:02.457Z,28.00
2019-01-16T05:16:53.212Z,22.40
2019-01-16T05:19:42.180Z,33.40
2019-01-16T05:22:17.798Z,34.97
2019-01-16T05:24:56.140Z,33.93
2019-01-16T05:27:45.094Z,40.00
2019-01-16T05:30:23.610Z,39.53
2019-01-16T05:33:12.160Z,38.20
2019-01-16T05:35:47.606Z,29.03
2019-01-16T05:38:36.787Z,30.77
2019-01-16T05:41:18.158Z,35.33
2019-01-16T05:43:56.466Z,40.17
2019-01-16T05:46:31.706Z,31.97
2019-01-16T05:49:07.442Z,41.93
2019-01-16T05:51:54.893Z,35.47
2019-01-16T05:54:33.192Z,31.40
2019-01-16T05:57:09.048Z,37.07
2019-01-16T05:59:59.856Z,38.73
2019-01-16T06:02:38.161Z,32.47
2019-01-16T06:05:10.763Z,33.00
2019-01-16T06:07:54.916Z,42.43
2019-01-16T06:10:30.165Z,37.23
2019-01-16T06:13:05.470Z,37.83
2019-01-16T06:15:47.261Z,39.13
2019-01-16T06:18:35.406Z,36.13
2019-01-16T06:21:17.197Z,41.67
2019-01-16T06:23:49.778Z,32.33
2019-01-16T06:26:43.035Z,31.27
2019-01-16T06:29:24.419Z,47.43
2019-01-16T06:31:57.074Z,31.73
2019-01-16T06:34:32.437Z,44.67
2019-01-16T06:37:04.825Z,34.67
2019-01-16T06:39:39.639Z,38.30
2019-01-16T06:42:17.839Z,43.93
2019-01-16T06:44:51.550Z,31.63
2019-01-16T06:47:23.722Z,40.17
2019-01-16T06:50:02.444Z,50.87
2019-01-16T06:52:34.905Z,50.47
2019-01-16T06:55:24.591Z,37.53
2019-01-16T06:58:15.393Z,38.73
2019-01-16T07:00:53.705Z,27.63
2019-01-16T07:03:38.367Z,49.03
2019-01-16T07:06:16.681Z,33.03
2019-01-16T07:08:52.160Z,43.23
2019-01-16T07:11:28.219Z,41.13
2019-01-16T07:14:09.092Z,40.40
2019-01-16T07:16:44.393Z,32.77
2019-01-16T07:19:16.868Z,31.37
2019-01-16T07:22:07.169Z,26.10
2019-01-16T07:24:51.819Z,32.07
2019-01-16T07:27:40.578Z,44.57
2019-01-16T07:30:29.363Z,34.10
2019-01-16T07:33:05.083Z,35.47
2019-01-16T07:35:45.946Z,31.60
2019-01-16T07:38:21.604Z,35.33
2019-01-16T07:41:10.364Z,28.70
2019-01-16T07:43:45.596Z,40.33
2019-01-16T07:46:18.260Z,32.27
2019-01-16T07:48:50.532Z,34.37
2019-01-16T07:51:39.339Z,54.73
2019-01-16T07:54:18.229Z,28.93
2019-01-16T07:57:06.173Z,54.00
2019-01-16T07:59:38.595Z,41.73
2019-01-16T08:02:14.188Z,37.87
2019-01-16T08:04:54.750Z,39.57
2019-01-16T08:07:29.915Z,39.53
2019-01-16T08:10:08.301Z,40.17
2019-01-16T08:12:47.025Z,42.57
2019-01-16T08:15:19.283Z,43.90
2019-01-16T08:18:07.126Z,38.00
2019-01-16T08:20:55.477Z,32.10
2019-01-16T08:23:28.050Z,39.63
2019-01-16T08:26:03.700Z,30.30
2019-01-16T08:28:39.351Z,38.20
2019-01-16T08:31:11.720Z,41.07
2019-01-16T08:33:59.040Z,27.43
2019-01-16T08:36:31.450Z,47.53
2019-01-16T08:39:03.554Z,29.27
2019-01-16T08:41:45.254Z,30.33
2019-01-16T08:44:20.419Z,28.93
2019-01-16T08:46:55.754Z,34.07
2019-01-16T08:49:28.398Z,23.60
2019-01-16T08:52:09.914Z,28.10
2019-01-16T08:54:58.468Z,55.80
2019-01-16T08:57:47.427Z,29.70
2019-01-16T09:00:28.919Z,29.40
2019-01-16T09:03:01.389Z,31.63
2019-01-16T09:05:36.421Z,33.43
2019-01-16T09:08:14.940Z,18.97
2019-01-16T09:10:50.382Z,26.73
2019-01-16T09:13:29.103Z,34.23
2019-01-16T09:16:04.140Z,34.27
2019-01-16T09:18:36.713Z,33.07
2019-01-16T09:21:09.078Z,66.43
2019-01-16T09:23:50.265Z,50.13
2019-01-16T09:26:39.028Z,49.03
2019-01-16T09:29:11.597Z,57.80
2019-01-16T09:31:46.647Z,53.47
2019-01-16T09:34:22.074Z,54.47
2019-01-16T09:37:13.289Z,47.90
2019-01-16T09:39:57.949Z,43.17
2019-01-16T09:42:45.688Z,60.83
2019-01-16T09:45:18.057Z,45.23
2019-01-16T09:48:02.419Z,42.40
2019-01-16T09:50:47.635Z,37.67
2019-01-16T09:53:17.399Z,32.90
2019-01-16T09:55:52.731Z,25.27
2019-01-16T09:58:31.591Z,42.97
2019-01-16T10:01:03.779Z,34.83
2019-01-16T10:03:48.487Z,22.80
2019-01-16T10:06:23.930Z,34.73
2019-01-16T10:08:58.837Z,28.60
2019-01-16T10:11:34.000Z,28.77
2019-01-16T10:14:06.781Z,24.53
2019-01-16T10:16:42.017Z,26.83
2019-01-16T10:19:14.059Z,35.77
2019-01-16T10:22:01.919Z,38.67
2019-01-16T10:24:52.517Z,32.47
2019-01-16T10:27:41.477Z,34.40
2019-01-16T10:30:31.260Z,29.17
2019-01-16T10:33:06.600Z,35.93
2019-01-16T10:35:50.954Z,24.53
2019-01-16T10:38:39.714Z,32.83
2019-01-16T10:41:18.227Z,18.40
2019-01-16T10:43:53.659Z,24.60
2019-01-16T10:46:37.920Z,28.13
2019-01-16T10:49:29.076Z,37.97
2019-01-16T10:52:01.512Z,17.87
2019-01-16T10:54:36.551Z,25.30
2019-01-16T10:57:11.779Z,28.40
2019-01-16T11:00:00.778Z,30.50
2019-01-16T11:02:44.846Z,22.27
2019-01-16T11:05:23.393Z,36.03
2019-01-16T11:07:55.880Z,16.93
2019-01-16T11:10:28.461Z,28.60
2019-01-16T11:13:17.421Z,22.03
2019-01-16T11:15:49.995Z,20.60
2019-01-16T11:18:28.714Z,24.20
2019-01-16T11:21:15.834Z,27.93
2019-01-16T11:24:03.773Z,29.53
2019-01-16T11:26:52.528Z,25.40
2019-01-16T11:29:24.820Z,27.57
2019-01-16T11:32:00.340Z,26.60
2019-01-16T11:34:49.096Z,27.03
2019-01-16T11:37:38.056Z,18.43
2019-01-16T11:40:18.685Z,20.63
2019-01-16T11:43:00.414Z,20.47
2019-01-16T11:45:32.786Z,22.77
2019-01-16T11:48:21.549Z,22.97
2019-01-16T11:51:06.208Z,14.77
2019-01-16T11:53:41.645Z,25.63
2019-01-16T11:56:29.180Z,20.37
2019-01-16T11:59:07.691Z,18.57
2019-01-16T12:01:40.268Z,17.20
2019-01-16T12:04:28.818Z,30.70
2019-01-16T12:07:07.334Z,29.00
2019-01-16T12:09:39.912Z,22.20
2019-01-16T12:12:12.176Z,12.70
2019-01-16T12:14:44.471Z,21.17
2019-01-16T12:17:25.835Z,18.70
2019-01-16T12:20:14.384Z,16.30
2019-01-16T12:22:52.902Z,7.57
2019-01-16T12:25:28.057Z,15.83
2019-01-16T12:28:06.246Z,10.50
2019-01-16T12:30:41.487Z,8.43
2019-01-16T12:33:13.857Z,7.80
2019-01-16T12:35:55.445Z,8.17
2019-01-16T12:38:43.030Z,8.17
2019-01-16T12:41:24.765Z,6.20
2019-01-16T12:44:13.317Z,8.30
2019-01-16T12:46:54.910Z,5.77
2019-01-16T12:49:30.143Z,6.23
2019-01-16T12:52:02.461Z,6.50
2019-01-16T12:54:40.424Z,8.10
2019-01-16T12:57:27.741Z,11.40
2019-01-16T13:00:00.319Z,7.10
2019-01-16T13:02:32.661Z,8.33
2019-01-16T13:05:05.253Z,9.97
2019-01-16T13:07:47.059Z,10.17
2019-01-16T13:10:31.515Z,8.10
2019-01-16T13:13:03.884Z,9.17
2019-01-16T13:15:54.695Z,11.50
2019-01-16T13:18:30.133Z,7.60
2019-01-16T13:21:18.892Z,7.10
2019-01-16T13:23:51.264Z,7.97
2019-01-16T13:26:29.694Z,6.90
2019-01-16T13:29:18.654Z,8.83
2019-01-16T13:31:51.023Z,5.70
2019-01-16T13:34:39.778Z,7.27
2019-01-16T13:37:12.086Z,10.90
2019-01-16T13:39:50.056Z,11.17
2019-01-16T13:42:25.325Z,9.70
2019-01-16T13:45:06.676Z,18.67
2019-01-16T13:47:51.129Z,19.27
2019-01-16T13:50:32.780Z,17.07
2019-01-16T13:53:24.461Z,14.60
2019-01-16T13:56:08.590Z,18.77
2019-01-16T13:58:44.240Z,15.50
2019-01-16T14:01:16.588Z,23.20
2019-01-16T14:03:48.784Z,18.40
2019-01-16T14:06:37.533Z,12.27
2019-01-16T14:09:24.655Z,13.30
2019-01-16T14:12:12.179Z,18.10
2019-01-16T14:15:00.738Z,16.30
2019-01-16T14:17:48.380Z,17.87
2019-01-16T14:20:29.415Z,18.57
2019-01-16T14:23:08.166Z,11.10
2019-01-16T14:25:40.416Z,16.93
2019-01-16T14:28:17.935Z,21.40
2019-01-16T14:31:03.515Z,17.73
2019-01-16T14:33:51.236Z,16.70
2019-01-16T14:36:29.342Z,16.40
2019-01-16T14:39:17.262Z,18.63
2019-01-16T14:41:49.690Z,15.53
2019-01-16T14:44:24.993Z,14.40
2019-01-16T14:47:13.747Z,15.60
2019-01-16T14:49:46.120Z,18.97
2019-01-16T14:52:30.649Z,13.87
2019-01-16T14:55:19.332Z,15.00
2019-01-16T14:57:54.774Z,19.77
2019-01-16T15:00:29.746Z,20.13
2019-01-16T15:03:18.565Z,22.63
2019-01-16T15:05:50.767Z,27.90
2019-01-16T15:08:26.175Z,21.13
2019-01-16T15:10:58.549Z,26.03
2019-01-16T15:13:30.710Z,22.47
2019-01-16T15:16:05.955Z,24.70
2019-01-16T15:18:54.301Z,23.57
2019-01-16T15:21:42.854Z,18.27
2019-01-16T15:24:30.585Z,20.03
2019-01-16T15:27:09.511Z,20.83
2019-01-16T15:29:41.883Z,22.30
2019-01-16T15:32:14.264Z,20.67
2019-01-16T15:34:49.697Z,17.23
2019-01-16T15:37:24.921Z,21.50
2019-01-16T15:40:06.441Z,22.67
2019-01-16T15:42:38.694Z,21.60
2019-01-16T15:45:28.681Z,19.27
2019-01-16T15:48:01.187Z,16.33
2019-01-16T15:50:33.420Z,19.90
2019-01-16T15:53:22.392Z,19.47
2019-01-16T15:55:54.959Z,22.13
2019-01-16T15:58:43.919Z,21.70
2019-01-16T16:01:19.367Z,26.60
2019-01-16T16:03:51.944Z,29.33
2019-01-16T16:06:24.317Z,26.47
2019-01-16T16:08:59.555Z,29.53
2019-01-16T16:11:31.863Z,24.57
2019-01-16T16:14:20.477Z,21.67
2019-01-16T16:17:09.231Z,22.90
2019-01-16T16:19:41.608Z,33.40
2019-01-16T16:22:20.242Z,27.17
2019-01-16T16:24:52.700Z,29.10
2019-01-16T16:27:37.288Z,28.63
2019-01-16T16:30:27.135Z,25.53
2019-01-16T16:33:27.156Z,25.77
2019-01-16T16:36:05.628Z,22.57
2019-01-16T16:38:41.119Z,24.37
2019-01-16T16:41:28.645Z,30.43
2019-01-16T16:44:17.407Z,31.03
2019-01-16T16:47:01.862Z,28.70
2019-01-16T16:49:37.194Z,29.37
2019-01-16T16:52:12.333Z,31.20
2019-01-16T16:54:44.911Z,29.20
2019-01-16T16:57:20.160Z,26.87
2019-01-16T17:00:07.836Z,28.87
2019-01-16T17:02:40.460Z,24.67
2019-01-16T17:05:22.706Z,38.07
2019-01-16T17:08:04.045Z,29.33
2019-01-16T17:10:45.230Z,28.87
2019-01-16T17:13:23.944Z,30.10
2019-01-16T17:15:59.390Z,39.00
2019-01-16T17:18:39.372Z,33.57
2019-01-16T17:21:15.587Z,32.17
2019-01-16T17:23:47.975Z,35.37
2019-01-16T17:26:23.358Z,38.70
2019-01-16T17:29:11.561Z,41.93
2019-01-16T17:31:44.138Z,32.10
2019-01-16T17:34:16.516Z,31.57
2019-01-16T17:36:52.157Z,38.23
2019-01-16T17:39:24.206Z,40.47
2019-01-16T17:41:59.564Z,35.97
2019-01-16T17:44:34.736Z,39.53
2019-01-16T17:47:08.814Z,34.90
2019-01-16T17:49:42.281Z,40.70
2019-01-16T17:52:20.914Z,39.10
2019-01-16T17:55:02.521Z,43.30
2019-01-16T17:57:41.248Z,39.90
2019-01-16T18:00:27.258Z,44.00
2019-01-16T18:03:02.232Z,39.87
2019-01-16T18:05:49.900Z,45.27
2019-01-16T18:08:25.133Z,46.37
2019-01-16T18:11:14.301Z,39.50
2019-01-16T18:13:46.884Z,35.10
2019-01-16T18:16:28.588Z,42.07
2019-01-16T18:19:16.399Z,37.10
2019-01-16T18:21:52.190Z,36.93
2019-01-16T18:24:24.833Z,37.37
2019-01-16T18:27:15.848Z,40.27
2019-01-16T18:30:03.573Z,36.87
2019-01-16T18:32:36.203Z,41.73
2019-01-16T18:35:10.587Z,39.67
2019-01-16T18:37:49.747Z,44.83
2019-01-16T18:40:28.226Z,41.50
2019-01-16T18:43:04.031Z,46.97
2019-01-16T18:45:52.829Z,42.97
2019-01-16T18:48:25.352Z,40.63
2019-01-16T18:51:13.135Z,39.20
2019-01-16T18:54:02.144Z,43.27
2019-01-16T18:56:43.479Z,42.10
2019-01-16T18:59:20.369Z,39.93
2019-01-16T19:01:52.834Z,49.13
2019-01-16T19:04:28.596Z,44.27
2019-01-16T19:07:07.170Z,45.37
2019-01-16T19:09:45.412Z,46.80
2019-01-16T19:12:33.966Z,51.50
2019-01-16T19:15:07.971Z,49.93
2019-01-16T19:17:46.078Z,52.03
2019-01-16T19:20:18.657Z,53.80
2019-01-16T19:23:08.024Z,56.27
2019-01-16T19:25:41.422Z,56.73
2019-01-16T19:28:31.815Z,55.53
2019-01-16T19:31:04.336Z,56.77
2019-01-16T19:33:36.701Z,57.97
2019-01-16T19:36:08.812Z,57.17
2019-01-16T19:38:47.042Z,55.53
2019-01-16T19:41:25.582Z,62.70
2019-01-16T19:44:00.936Z,57.13
2019-01-16T19:46:41.969Z,56.87
2019-01-16T19:49:14.499Z,52.07
2019-01-16T19:51:49.867Z,59.37
2019-01-16T19:54:34.656Z,64.20
2019-01-16T19:57:13.373Z,55.43
2019-01-16T20:00:02.130Z,60.20
2019-01-16T20:02:40.440Z,65.20
2019-01-16T20:05:25.111Z,47.70
2019-01-16T20:07:57.474Z,53.83
2019-01-16T20:10:32.916Z,55.07
2019-01-16T20:13:11.795Z,48.10
2019-01-16T20:15:50.771Z,44.40
2019-01-16T20:18:32.559Z,47.27
2019-01-16T20:21:21.522Z,48.20
2019-01-16T20:24:10.280Z,48.77
2019-01-16T20:26:51.971Z,39.10
2019-01-16T20:29:39.709Z,41.63
2019-01-16T20:32:12.279Z,39.33
2019-01-16T20:34:47.518Z,34.07
2019-01-16T20:37:20.092Z,37.80
2019-01-16T20:39:58.409Z,39.23
2019-01-16T20:42:33.645Z,44.33
2019-01-16T20:45:06.305Z,37.90
2019-01-16T20:47:58.430Z,33.10
2019-01-16T20:50:30.830Z,39.97
2019-01-16T20:53:17.551Z,40.57
2019-01-16T20:56:04.863Z,43.37
2019-01-16T20:58:49.098Z,37.27
2019-01-16T21:01:37.873Z,33.87
2019-01-16T21:04:10.210Z,38.27
2019-01-16T21:06:42.618Z,46.03
2019-01-16T21:09:17.971Z,40.20
2019-01-16T21:11:53.066Z,48.80
2019-01-16T21:14:36.485Z,36.10
2019-01-16T21:17:17.751Z,45.07
2019-01-16T21:19:55.603Z,46.50
2019-01-16T21:22:42.520Z,42.17
2019-01-16T21:25:20.527Z,34.67
2019-01-16T21:28:05.281Z,35.07
2019-01-16T21:30:47.694Z,32.50
2019-01-16T21:33:19.880Z,33.63
2019-01-16T21:36:01.446Z,37.87
2019-01-16T21:38:33.743Z,27.40
2019-01-16T21:41:21.547Z,35.57
2019-01-16T21:44:08.316Z,32.87
2019-01-16T21:46:58.035Z,30.87
2019-01-16T21:49:37.205Z,35.50
2019-01-16T21:52:10.227Z,85.60
2019-01-16T21:54:54.814Z,111.57
2019-01-16T21:57:31.285Z,86.50
2019-01-16T22:00:15.739Z,65.00
2019-01-16T22:03:00.406Z,58.40
2019-01-16T22:05:48.376Z,56.40
2019-01-16T22:08:27.055Z,42.53
2019-01-16T22:11:15.401Z,40.77
2019-01-16T22:13:47.738Z,42.80
2019-01-16T22:16:20.097Z,41.67
2019-01-16T22:19:04.395Z,43.80
2019-01-16T22:21:49.472Z,45.37
2019-01-16T22:24:40.475Z,47.17
2019-01-16T22:27:15.715Z,50.77
2019-01-16T22:29:48.100Z,48.27
2019-01-16T22:32:26.602Z,46.27
2019-01-16T22:35:15.560Z,50.07
2019-01-16T22:37:59.819Z,42.53
2019-01-16T22:40:38.125Z,35.47
2019-01-16T22:43:10.527Z,32.67
2019-01-16T22:45:48.604Z,26.50
2019-01-16T22:48:37.095Z,31.17
2019-01-16T22:51:15.886Z,27.57
2019-01-16T22:53:48.135Z,18.80
2019-01-16T22:56:23.690Z,16.73
2019-01-16T22:58:58.659Z,16.00
2019-01-16T23:01:33.164Z,16.73
2019-01-16T23:04:21.899Z,14.20
2019-01-16T23:06:54.479Z,13.90
2019-01-16T23:09:27.057Z,14.63
2019-01-16T23:12:02.157Z,7.50
2019-01-16T23:14:34.242Z,12.30
2019-01-16T23:17:06.834Z,5.33
2019-01-16T23:19:54.775Z,5.57
2019-01-16T23:22:27.350Z,5.70
2019-01-16T23:24:59.922Z,7.23
2019-01-16T23:27:35.912Z,3.80
2019-01-16T23:30:10.644Z,2.67
2019-01-16T23:33:01.208Z,10.50
2019-01-16T23:35:36.854Z,2.23
2019-01-16T23:38:09.239Z,6.73
2019-01-16T23:40:50.611Z,8.83
2019-01-16T23:43:41.416Z,1.80
2019-01-16T23:46:30.174Z,6.87
2019-01-16T23:49:05.235Z,3.53
2019-01-16T23:51:49.580Z,3.67
2019-01-16T23:54:28.019Z,4.87
2019-01-16T23:57:12.122Z,5.83
2019-01-16T23:59:50.124Z,9.50
